Babun Express — ERZZ — position and weather

sailwx.info

Track history (hours):
 
Tides and Currents Weather Stations Pressure Air Temp Water Temp Dewpoint Dewpoint Depression Visibility Wind Speed Wind Dir Waves Ship Positions

Babun Express

Last reported at 2017-Dec-17 03:25 UTC. Time now 2017-Dec-17 17:38 UTC.
Position N 21°16' W 075°45'.

Length 91 m; draft 4.4 m.

Type: Cargo ship. MMSI: 214182626.

Date/timePositionNaut miles runAvg speedWind from/ knotsBaromVisibWave heightAir tempDewpointWater temp
2017-Dec-17 03:25N 21°16' W 075°45'410.4
2017-Dec-17 03:00N 21°18' W 075°49'510.3
2017-Dec-17 02:30N 21°21' W 075°53'32810.4
2017-Dec-15 18:51N 25°24' W 079°54'3 9.1
2017-Dec-15 18:30N 25°26' W 079°55'4 9.0
2017-Dec-15 18:00N 25°31' W 079°57'5 9.3
2017-Dec-15 17:30N 25°35' W 079°59'5 9.5
2017-Dec-15 17:00N 25°40' W 079°60'5 9.2
2017-Dec-15 16:30N 25°44' W 080°01'4 8.6
2017-Dec-15 16:00N 25°46' W 080°06'5 8.6
2017-Dec-15 15:29N 25°46' W 080°11'1 1.7
2017-Dec-15 14:59N 25°46' W 080°12'1 2.3
2017-Dec-15 14:29N 25°47' W 080°13'1 2.7
2017-Dec-15 13:58N 25°47' W 080°14'1 1.5
2017-Dec-15 13:28N 25°48' W 080°15'0 0.0
2017-Dec-15 12:58N 25°48' W 080°15'0 0.0
2017-Dec-15 12:28N 25°48' W 080°15'0 0.0
2017-Dec-15 11:58N 25°48' W 080°15'0 0.0
2017-Dec-15 11:25N 25°48' W 080°15'0 0.0
2017-Dec-15 10:58N 25°48' W 080°15'0 0.0
2017-Dec-15 10:28N 25°48' W 080°15'0 0.0
2017-Dec-15 09:58N 25°48' W 080°15'0 0.0
2017-Dec-15 09:28N 25°48' W 080°15'0 0.0
2017-Dec-15 08:58N 25°48' W 080°15'0 0.0
2017-Dec-15 08:28N 25°48' W 080°15'0 0.0
2017-Dec-15 07:58N 25°48' W 080°15'0 0.0
2017-Dec-15 07:28N 25°48' W 080°15'0 0.0
2017-Dec-15 06:58N 25°48' W 080°15'0 0.0
2017-Dec-15 06:28N 25°48' W 080°15'0 0.0
2017-Dec-15 05:58N 25°48' W 080°15'0 0.0
2017-Dec-15 05:28N 25°48' W 080°15'0 0.0
2017-Dec-15 04:58N 25°48' W 080°15'0 0.0
2017-Dec-15 04:28N 25°48' W 080°15'0 0.0
2017-Dec-15 03:58N 25°48' W 080°15'0 0.0
2017-Dec-15 02:25N 25°48' W 080°15'0 0.0
2017-Dec-15 00:58N 25°48' W 080°15'0 0.0
2017-Dec-15 00:28N 25°48' W 080°15'9 1.5
2017-Dec-14 18:30N 25°47' W 080°05'1 1.8
2017-Dec-14 18:00N 25°48' W 080°04'2 3.5
2017-Dec-14 17:30N 25°46' W 080°03'611.5
2017-Dec-14 17:00N 25°41' W 080°02'713.0
2017-Dec-14 16:30N 25°35' W 079°58'712.9
2017-Dec-14 15:59N 25°29' W 079°55'  
2017-Dec-07 08:17N 25°22' W 079°54'3 9.2
2017-Dec-07 07:58N 25°25' W 079°55'4 9.4
2017-Dec-07 07:30N 25°29' W 079°57'5 9.6
2017-Dec-07 07:00N 25°33' W 079°59'510.4
2017-Dec-07 06:30N 25°38' W 080°01'611.2
2017-Dec-07 06:00N 25°43' W 080°04'4 8.5
2017-Dec-07 05:30N 25°46' W 080°08'3 5.3
2017-Dec-07 05:00N 25°46' W 080°11'1 2.1
2017-Dec-07 04:30N 25°46' W 080°12'1 2.4
2017-Dec-07 04:00N 25°47' W 080°13'1 2.5
2017-Dec-07 03:30N 25°47' W 080°14'  
Track history (hours):
 
Tides and Currents Weather Stations Pressure Air Temp Water Temp Dewpoint Dewpoint Depression Visibility Wind Speed Wind Dir Waves Ship Positions

Babun Express

Last reported at 2017-Dec-17 03:25 UTC. Time now 2017-Dec-17 17:38 UTC.
Position N 21°16' W 075°45'.

Length 91 m; draft 4.4 m.

Type: Cargo ship. MMSI: 214182626.

Date/timePositionNaut miles runAvg speedWind from/ knotsBaromVisibWave heightAir tempDewpointWater temp
2017-Dec-17 03:25N 21°16' W 075°45'410.4
2017-Dec-17 03:00N 21°18' W 075°49'510.3
2017-Dec-17 02:30N 21°21' W 075°53'32810.4
2017-Dec-15 18:51N 25°24' W 079°54'3 9.1
2017-Dec-15 18:30N 25°26' W 079°55'4 9.0
2017-Dec-15 18:00N 25°31' W 079°57'5 9.3
2017-Dec-15 17:30N 25°35' W 079°59'5 9.5
2017-Dec-15 17:00N 25°40' W 079°60'5 9.2
2017-Dec-15 16:30N 25°44' W 080°01'4 8.6
2017-Dec-15 16:00N 25°46' W 080°06'5 8.6
2017-Dec-15 15:29N 25°46' W 080°11'1 1.7
2017-Dec-15 14:59N 25°46' W 080°12'1 2.3
2017-Dec-15 14:29N 25°47' W 080°13'1 2.7
2017-Dec-15 13:58N 25°47' W 080°14'1 1.5
2017-Dec-15 13:28N 25°48' W 080°15'0 0.0
2017-Dec-15 12:58N 25°48' W 080°15'0 0.0
2017-Dec-15 12:28N 25°48' W 080°15'0 0.0
2017-Dec-15 11:58N 25°48' W 080°15'0 0.0
2017-Dec-15 11:25N 25°48' W 080°15'0 0.0
2017-Dec-15 10:58N 25°48' W 080°15'0 0.0
2017-Dec-15 10:28N 25°48' W 080°15'0 0.0
2017-Dec-15 09:58N 25°48' W 080°15'0 0.0
2017-Dec-15 09:28N 25°48' W 080°15'0 0.0
2017-Dec-15 08:58N 25°48' W 080°15'0 0.0
2017-Dec-15 08:28N 25°48' W 080°15'0 0.0
2017-Dec-15 07:58N 25°48' W 080°15'0 0.0
2017-Dec-15 07:28N 25°48' W 080°15'0 0.0
2017-Dec-15 06:58N 25°48' W 080°15'0 0.0
2017-Dec-15 06:28N 25°48' W 080°15'0 0.0
2017-Dec-15 05:58N 25°48' W 080°15'0 0.0
2017-Dec-15 05:28N 25°48' W 080°15'0 0.0
2017-Dec-15 04:58N 25°48' W 080°15'0 0.0
2017-Dec-15 04:28N 25°48' W 080°15'0 0.0
2017-Dec-15 03:58N 25°48' W 080°15'0 0.0
2017-Dec-15 02:25N 25°48' W 080°15'0 0.0
2017-Dec-15 00:58N 25°48' W 080°15'0 0.0
2017-Dec-15 00:28N 25°48' W 080°15'9 1.5
2017-Dec-14 18:30N 25°47' W 080°05'1 1.8
2017-Dec-14 18:00N 25°48' W 080°04'2 3.5
2017-Dec-14 17:30N 25°46' W 080°03'611.5
2017-Dec-14 17:00N 25°41' W 080°02'713.0
2017-Dec-14 16:30N 25°35' W 079°58'712.9
2017-Dec-14 15:59N 25°29' W 079°55'  
2017-Dec-07 08:17N 25°22' W 079°54'3 9.2
2017-Dec-07 07:58N 25°25' W 079°55'4 9.4
2017-Dec-07 07:30N 25°29' W 079°57'5 9.6
2017-Dec-07 07:00N 25°33' W 079°59'510.4
2017-Dec-07 06:30N 25°38' W 080°01'611.2
2017-Dec-07 06:00N 25°43' W 080°04'4 8.5
2017-Dec-07 05:30N 25°46' W 080°08'3 5.3
2017-Dec-07 05:00N 25°46' W 080°11'1 2.1
2017-Dec-07 04:30N 25°46' W 080°12'1 2.4
2017-Dec-07 04:00N 25°47' W 080°13'1 2.5
2017-Dec-07 03:30N 25°47' W 080°14'  

Dump ship's entire track history